Flight Track Log - Related Links

Times and Time Zones

All times are in EDT time to prevent confusion due to time zone crossing. See the TAM3609 flight status page for this flight to view local times or setup timezone preferences in your user account.

Time Position Orientation Groundspeed Altitude Reporting Facility
EDT Latitude Longitude Course Direction KTS MPH feet Rate Location/Type
Thu 02:46:12 PM -3.0390 -60.0060 91° East 188 216 1,700  Level FlightAware ADS-B
Thu 02:46:32 PM -3.0390 -59.9980 90° East 198 228 1,900 1,556 Climbing FlightAware ADS-B
Thu 02:47:06 PM -3.0420 -59.9640 95° East 204 235 3,100 1,969 Climbing FlightAware ADS-B
Thu 02:47:36 PM -3.0730 -59.9360 138° Southeast 245 282 4,000 2,172 Climbing FlightAware ADS-B
Thu 02:48:04 PM -3.0990 -59.9170 144° Southeast 251 289 5,200 2,571 Climbing FlightAware ADS-B
Thu 02:48:46 PM -3.1370 -59.8870 142° Southeast 257 296 7,000 2,486 Climbing FlightAware ADS-B
Thu 02:49:14 PM -3.1640 -59.8670 144° Southeast 264 304 8,100 2,509 Climbing FlightAware ADS-B
Thu 02:49:41 PM -3.1900 -59.8470 142° Southeast 265 305 9,300 2,024 Climbing FlightAware ADS-B
Thu 02:50:37 PM -3.2470 -59.8030 142° Southeast 298 343 10,900 1,455 Climbing FlightAware ADS-B
Thu 02:51:20 PM -3.2970 -59.7640 142° Southeast 336 387 11,700 1,071 Climbing FlightAware ADS-B
Thu 02:52:01 PM -3.3490 -59.7250 143° Southeast 363 418 12,400 1,463 Climbing FlightAware ADS-B
Thu 02:52:42 PM -3.4070 -59.6800 142° Southeast 375 432 13,700 1,926 Climbing FlightAware ADS-B
Thu 02:53:22 PM -3.4620 -59.6370 142° Southeast 380 437 15,000 1,902 Climbing FlightAware ADS-B
Thu 02:54:04 PM -3.5230 -59.5890 142° Southeast 387 445 16,300 1,224 Climbing FlightAware ADS-B
Thu 02:55:00 PM -3.5930 -59.5350 142° Southeast 391 450 17,000 872 Climbing FlightAware ADS-B
Thu 02:56:01 PM -3.6800 -59.4680 142° Southeast 399 459 18,000 632 Climbing FlightAware ADS-B
Thu 02:56:35 PM -3.7220 -59.4350 142° Southeast 399 459 18,000  Level FlightAware ADS-B
Thu 02:57:25 PM -3.7840 -59.3860 142° Southeast 399 459 18,000  Level FlightAware ADS-B
Thu 02:58:01 PM -3.8290 -59.3510 142° Southeast 399 459 18,000  Level FlightAware ADS-B
Thu 02:58:47 PM -3.8860 -59.3070 142° Southeast 399 459 18,000 133 Level FlightAware ADS-B
Thu 03:01:00 PM -4.0926 -59.1184 138° Southeast  Level Estimated
Thu 03:02:00 PM -4.1859 -59.0333 138° Southeast  Level Estimated
Thu 03:03:00 PM -4.2790 -58.9482 138° Southeast  Level Estimated
Thu 03:04:00 PM -4.3722 -58.8631 138° Southeast  Level Estimated
Thu 03:05:00 PM -4.4654 -58.7779 138° Southeast  Level Estimated
Thu 03:06:00 PM -4.5586 -58.6927 138° Southeast  Level Estimated
Thu 03:07:00 PM -4.6518 -58.6075 138° Southeast  Level Estimated
Thu 03:08:00 PM -4.7449 -58.5223 138° Southeast  Level Estimated
Thu 03:09:00 PM -4.8380 -58.4370 138° Southeast  Level Estimated
Thu 03:10:00 PM -4.9312 -58.3517 138° Southeast  Level Estimated
Thu 03:11:00 PM -5.0243 -58.2664 138° Southeast  Level Estimated
Thu 03:12:00 PM -5.1174 -58.1811 138° Southeast  Level Estimated
Thu 03:13:00 PM -5.2105 -58.0958 138° Southeast  Level Estimated
Thu 03:14:00 PM -5.3035 -58.0104 138° Southeast  Level Estimated
Thu 03:15:00 PM -5.3959 -57.9256 138° Southeast  Level Estimated
Thu 03:16:00 PM -5.4883 -57.8408 138° Southeast  Level Estimated
Thu 03:17:00 PM -5.5807 -57.7560 138° Southeast  Level Estimated
Thu 03:18:00 PM -5.6731 -57.6711 138° Southeast  Level Estimated
Thu 03:19:00 PM -5.7655 -57.5862 138° Southeast  Level Estimated
Thu 03:20:00 PM -5.8578 -57.5013 138° Southeast  Level Estimated
Thu 03:21:00 PM -5.9501 -57.4163 138° Southeast  Level Estimated
Thu 03:22:00 PM -6.0424 -57.3313 138° Southeast  Level Estimated
Thu 03:23:00 PM -6.1347 -57.2463 138° Southeast  Level Estimated
Thu 03:24:00 PM -6.2270 -57.1613 138° Southeast  Level Estimated
Thu 03:25:00 PM -6.3193 -57.0762 138° Southeast  Level Estimated
Thu 03:26:00 PM -6.4116 -56.9911 137° Southeast  Level Estimated
Thu 03:27:00 PM -6.5038 -56.9060 137° Southeast  Level Estimated
Thu 03:28:00 PM -6.5961 -56.8208 137° Southeast  Level Estimated
Thu 03:29:00 PM -6.6883 -56.7356 137° Southeast  Level Estimated
Thu 03:30:00 PM -6.7805 -56.6504 137° Southeast  Level Estimated
Thu 03:31:00 PM -6.8727 -56.5652 137° Southeast  Level Estimated
Thu 03:32:00 PM -6.9649 -56.4799 137° Southeast  Level Estimated
Thu 03:33:00 PM -7.0570 -56.3945 137° Southeast  Level Estimated
Thu 03:34:00 PM -7.1492 -56.3092 137° Southeast  Level Estimated
Thu 03:35:00 PM -7.2413 -56.2238 137° Southeast  Level Estimated
Thu 03:36:00 PM -7.3334 -56.1384 137° Southeast  Level Estimated
Thu 03:37:00 PM -7.4255 -56.0529 137° Southeast  Level Estimated
Thu 03:38:00 PM -7.5176 -55.9674 137° Southeast  Level Estimated
Thu 03:39:00 PM -7.6097 -55.8819 137° Southeast  Level Estimated
Thu 03:40:00 PM -7.7017 -55.7963 137° Southeast  Level Estimated
Thu 03:41:00 PM -7.7937 -55.7107 137° Southeast  Level Estimated
Thu 03:42:00 PM -7.8857 -55.6250 137° Southeast  Level Estimated
Thu 03:43:00 PM -7.9777 -55.5393 137° Southeast  Level Estimated
Thu 03:44:00 PM -8.0697 -55.4536 137° Southeast  Level Estimated
Thu 03:45:00 PM -8.1617 -55.3679 137° Southeast  Level Estimated
Thu 03:46:00 PM -8.2536 -55.2821 137° Southeast  Level Estimated
Thu 03:47:00 PM -8.3456 -55.1962 137° Southeast  Level Estimated
Thu 03:48:00 PM -8.4375 -55.1103 137° Southeast  Level Estimated
Thu 03:49:00 PM -8.5294 -55.0244 137° Southeast  Level Estimated
Thu 03:50:00 PM -8.6212 -54.9385 137° Southeast  Level Estimated
Thu 03:51:00 PM -8.7131 -54.8525 137° Southeast  Level Estimated
Thu 03:52:00 PM -8.8049 -54.7664 137° Southeast  Level Estimated
Thu 03:53:00 PM -8.8967 -54.6803 137° Southeast  Level Estimated
Thu 03:54:00 PM -8.9885 -54.5942 137° Southeast  Level Estimated
Thu 03:55:00 PM -9.0803 -54.5080 137° Southeast  Level Estimated
Thu 03:56:00 PM -9.1720 -54.4218 137° Southeast  Level Estimated
Thu 03:57:00 PM -9.2638 -54.3355 137° Southeast  Level Estimated
Thu 03:58:00 PM -9.3555 -54.2492 137° Southeast  Level Estimated
Thu 03:59:00 PM -9.4472 -54.1628 137° Southeast  Level Estimated
Thu 04:00:00 PM -9.5388 -54.0764 137° Southeast  Level Estimated
Thu 04:01:00 PM -9.6305 -53.9900 137° Southeast  Level Estimated
Thu 04:02:00 PM -9.7221 -53.9035 137° Southeast  Level Estimated
Thu 04:03:00 PM -9.8137 -53.8170 137° Southeast  Level Estimated
Thu 04:04:00 PM -9.9053 -53.7304 137° Southeast  Level Estimated
Thu 04:05:00 PM -9.9969 -53.6437 137° Southeast  Level Estimated
Thu 04:06:00 PM -10.0884 -53.5570 137° Southeast  Level Estimated
Thu 04:07:00 PM -10.1799 -53.4703 137° Southeast  Level Estimated
Thu 04:08:00 PM -10.2714 -53.3835 137° Southeast  Level Estimated
Thu 04:09:00 PM -10.3629 -53.2967 137° Southeast  Level Estimated
Thu 04:10:00 PM -10.4543 -53.2098 137° Southeast  Level Estimated
Thu 04:11:00 PM -10.5457 -53.1228 137° Southeast  Level Estimated
Thu 04:12:00 PM -10.6371 -53.0358 137° Southeast  Level Estimated
Thu 04:13:00 PM -10.7285 -52.9488 137° Southeast  Level Estimated
Thu 04:14:00 PM -10.8198 -52.8617 137° Southeast  Level Estimated
Thu 04:15:00 PM -10.9112 -52.7746 137° Southeast  Level Estimated
Thu 04:16:00 PM -11.0025 -52.6874 137° Southeast  Level Estimated
Thu 04:17:00 PM -11.0937 -52.6001 137° Southeast  Level Estimated
Thu 04:18:00 PM -11.1850 -52.5128 137° Southeast  Level Estimated
Thu 04:19:00 PM -11.2762 -52.4254 137° Southeast  Level Estimated
Thu 04:20:00 PM -11.3674 -52.3380 137° Southeast  Level Estimated
Thu 04:21:00 PM -11.4586 -52.2505 137° Southeast  Level Estimated
Thu 04:22:00 PM -11.5497 -52.1630 137° Southeast  Level Estimated
Thu 04:23:00 PM -11.6409 -52.0754 137° Southeast  Level Estimated
Thu 04:24:00 PM -11.7319 -51.9877 137° Southeast  Level Estimated
Thu 04:25:00 PM -11.8230 -51.9000 137° Southeast  Level Estimated
Thu 04:26:00 PM -11.9141 -51.8122 137° Southeast  Level Estimated
Thu 04:27:00 PM -12.0051 -51.7244 137° Southeast  Level Estimated
Thu 04:28:00 PM -12.0961 -51.6366 137° Southeast  Level Estimated
Thu 04:29:00 PM -12.1870 -51.5486 137° Southeast  Level Estimated
Thu 04:30:00 PM -12.2779 -51.4606 137° Southeast  Level Estimated
Thu 04:31:00 PM -12.3688 -51.3725 137° Southeast  Level Estimated
Thu 04:32:00 PM -12.4597 -51.2844 137° Southeast  Level Estimated
Thu 04:33:00 PM -12.5506 -51.1962 137° Southeast  Level Estimated
Thu 04:34:00 PM -12.6414 -51.1080 137° Southeast  Level Estimated
Thu 04:35:00 PM -12.7322 -51.0197 137° Southeast  Level Estimated
Thu 04:36:00 PM -12.8229 -50.9313 136° Southeast  Level Estimated
Thu 04:37:00 PM -12.9137 -50.8428 136° Southeast  Level Estimated
Thu 04:38:00 PM -13.0044 -50.7543 136° Southeast  Level Estimated
Thu 04:39:00 PM -13.0950 -50.6658 136° Southeast  Level Estimated
Thu 04:40:00 PM -13.1857 -50.5771 136° Southeast  Level Estimated
Thu 04:41:00 PM -13.2763 -50.4884 136° Southeast  Level Estimated
Thu 04:42:00 PM -13.3669 -50.3997 136° Southeast  Level Estimated
Thu 04:43:00 PM -13.4574 -50.3108 136° Southeast  Level Estimated
Thu 04:44:00 PM -13.5479 -50.2219 136° Southeast  Level Estimated
Thu 04:45:00 PM -13.6384 -50.1330 136° Southeast  Level Estimated
Thu 04:46:00 PM -13.7289 -50.0439 136° Southeast  Level Estimated
Thu 04:47:00 PM -13.8193 -49.9548 136° Southeast  Level Estimated
Thu 04:48:00 PM -13.9097 -49.8657 136° Southeast  Level Estimated
Thu 04:49:00 PM -14.0000 -49.7764 136° Southeast  Level Estimated
Thu 04:50:00 PM -14.0904 -49.6871 136° Southeast  Level Estimated
Thu 04:51:00 PM -14.1806 -49.5977 136° Southeast  Level Estimated
Thu 04:52:00 PM -14.2709 -49.5083 136° Southeast  Level Estimated
Thu 04:53:00 PM -14.3611 -49.4187 136° Southeast  Level Estimated
Thu 04:54:00 PM -14.4513 -49.3291 136° Southeast  Level Estimated
Thu 04:55:00 PM -14.5415 -49.2394 136° Southeast  Level Estimated
Thu 04:55:21 PM -14.7360 -49.3650 136° Southeast 436 502 33,600  Level FlightAware ADS-B
Thu 04:56:00 PM -14.6316 -49.1497 136° Southeast  Level Estimated
Thu 04:56:19 PM -14.7590 -49.3440 139° Southeast 431 496 33,300  Level FlightAware ADS-B
Thu 04:57:01 PM -14.8850 -49.2350 140° Southeast 416 479 30,700 -2,633 Descending FlightAware ADS-B
Thu 04:57:57 PM -14.9680 -49.1610 139° Southeast 400 460 29,000 -1,753 Descending FlightAware ADS-B
Thu 04:58:30 PM -15.0150 -49.1210 141° Southeast 393 452 28,100 -1,650 Descending FlightAware ADS-B
Thu 04:59:17 PM -15.0760 -49.0670 139° Southeast 384 442 26,800 -1,648 Descending FlightAware ADS-B
Thu 05:00:01 PM -15.1330 -49.0170 140° Southeast 376 433 25,600 -1,661 Descending FlightAware ADS-B
Thu 05:01:09 PM -15.2220 -48.9340 138° Southeast 368 423 23,700 -2,177 Descending FlightAware ADS-B
Thu 05:01:54 PM -15.2700 -48.8680 127° Southeast 388 447 21,500 -2,400 Descending FlightAware ADS-B
Thu 05:02:34 PM -15.3100 -48.8100 126° Southeast 383 441 20,300 -2,471 Descending FlightAware ADS-B
Thu 05:03:19 PM -15.3600 -48.7390 126° Southeast 398 458 18,000 -3,176 Descending FlightAware ADS-B
Thu 05:03:59 PM -15.4040 -48.6780 127° Southeast 410 472 15,800 -2,700 Descending FlightAware ADS-B
Thu 05:04:39 PM -15.4470 -48.6160 126° Southeast 383 441 14,400 -1,674 Descending FlightAware ADS-B
Thu 05:05:25 PM -15.4870 -48.5600 127° Southeast 327 376 13,400 -1,553 Descending FlightAware ADS-B
Thu 05:06:04 PM -15.5250 -48.5080 127° Southeast 299 344 12,200 -1,212 Descending FlightAware ADS-B
Thu 05:07:04 PM -15.5710 -48.4420 126° Southeast 279 321 11,400 -884 Descending FlightAware ADS-B
Thu 05:07:39 PM -15.5980 -48.4030 126° Southeast 275 316 10,800 -963 Descending FlightAware ADS-B
Thu 05:08:25 PM -15.6320 -48.3560 127° Southeast 262 302 10,100 -676 Descending FlightAware ADS-B
Thu 05:08:50 PM -15.6480 -48.3330 126° Southeast 259 298 10,000 -133 Descending FlightAware ADS-B
Thu 05:09:10 PM -15.6620 -48.3130 126° Southeast 248 285 10,000 -533 Level FlightAware ADS-B
Thu 05:09:35 PM -15.6770 -48.2890 123° Southeast 242 278 9,600 -833 Descending FlightAware ADS-B
Thu 05:09:46 PM -15.6790 -48.2750 98° East 233 268 9,500 -655 Descending FlightAware ADS-B
Thu 05:10:30 PM -15.6760 -48.2280 86° East 225 259 9,000 -686 Descending FlightAware ADS-B
Thu 05:10:56 PM -15.6740 -48.2030 85° East 223 257 8,700 -333 Descending FlightAware ADS-B
Thu 05:11:42 PM -15.6730 -48.1930 84° East 220 253 8,600 -960 Descending FlightAware ADS-B
Thu 05:12:11 PM -15.7270 -48.1680 156° South 221 254 7,500 -1,474 Descending FlightAware ADS-B
Thu 05:12:39 PM -15.7570 -48.1720 187° South 223 257 7,200 -517 Descending FlightAware ADS-B
Thu 05:13:09 PM -15.7840 -48.1830 201° Southwest 225 259 7,000 -333 Descending FlightAware ADS-B
Thu 05:13:33 PM -15.8060 -48.2000 217° Southwest 225 259 6,900 -273 Descending FlightAware ADS-B
Thu 05:13:53 PM -15.8230 -48.2120 214° Southwest 223 257 6,800 -286 Descending FlightAware ADS-B
Thu 05:14:15 PM -15.8410 -48.2250 215° Southwest 221 254 6,700 -300 Descending FlightAware ADS-B
Thu 05:14:33 PM -15.8580 -48.2320 202° Southwest 219 252 6,600 -261 Descending FlightAware ADS-B
Thu 05:15:01 PM -15.8810 -48.2180 150° Southeast 223 257 6,500 -214 Descending FlightAware ADS-B
Thu 05:15:29 PM -15.8810 -48.1900 90° East 205 236 6,400 -316 Descending FlightAware ADS-B
Thu 05:15:58 PM -15.8790 -48.1620 86° East 204 235 6,200 -316 Descending FlightAware ADS-B
Thu 05:16:26 PM -15.8770 -48.1350 86° East 204 235 6,100 -240 Descending FlightAware ADS-B
Thu 05:16:48 PM -15.8750 -48.1120 85° East 199 229 6,000 -346 Descending FlightAware ADS-B
Thu 05:17:18 PM -15.8740 -48.0860 88° East 188 216 5,800 -250 Descending FlightAware ADS-B
Thu 05:17:36 PM -15.8730 -48.0690 87° East 176 203 5,800 -409 Level FlightAware ADS-B
Thu 05:18:02 PM -15.8710 -48.0490 84° East 157 181 5,500 -732 Descending FlightAware ADS-B
Thu 05:18:17 PM -15.8710 -48.0390 90° East 152 175 5,300 -818 Descending FlightAware ADS-B
Thu 05:18:46 PM -15.8690 -48.0180 84° East 141 162 4,900 -764 Descending FlightAware ADS-B
Thu 05:19:12 PM -15.8680 -48.0000 87° East 141 162 4,600 -750 Descending FlightAware ADS-B
Thu 05:19:26 PM -15.8680 -47.9910 90° East 140 161 4,400 -667 Descending FlightAware ADS-B
Thu 05:19:48 PM -15.8670 -47.9770 86° East 141 162 4,200 -533 Descending FlightAware ADS-B
Thu 05:20:11 PM -15.8660 -47.9620 86° East 141 162 4,000 -720 Descending FlightAware ADS-B
Thu 05:20:38 PM -15.8650 -47.9420 87° East 139 160 3,600 -764 Descending FlightAware ADS-B
Thu 05:21:06 PM -15.8630 -47.9240 83° East 140 161 3,300 -202 Descending FlightAware ADS-B
Thu 05:21:28 PM -15.8630 -47.9130 90° East 68 78  Descending FlightAware ADS-B
Thu 05:22:07 PM -15.8610 -47.8950 83° East 141 162 3,300 5,077 Climbing FlightAware ADS-B
Thu 05:22:35 PM -15.8640 -47.9080 257° West 26 30 -7,071 Descending FlightAware ADS-B
Thu 05:23:04 PM -15.8640 -47.9100 270° West 31 36  Level FlightAware ADS-B
Thu 05:23:22 PM -15.8640 -47.9110 270° West 31 36  Level FlightAware ADS-B
Thu 05:23:49 PM -15.8650 -47.9120 224° Southwest 17 20  Level FlightAware ADS-B
Thu 05:24:03 PM -15.8650 -47.9130 270° West 17 20  Level FlightAware ADS-B
Thu 05:24:35 PM -15.8650 -47.9160 270° West 18 21  Level FlightAware ADS-B
Thu 05:25:05 PM -15.8650 -47.9180 270° West 24 28  Level FlightAware ADS-B
Thu 05:25:32 PM -15.8650 -47.9190 270° West 26 30  Level FlightAware ADS-B
Thu 05:26:14 PM -15.8650 -47.9210 270° West 27 31  Level FlightAware ADS-B
Thu 05:27:08 PM -15.8650 -47.9230 270° West 20 23  Level FlightAware ADS-B
Thu 05:27:37 PM -15.8650 -47.9240 270° West 23 26  Level FlightAware ADS-B
Thu 05:27:53 PM -15.8660 -47.9240 180° South 22 25  Level FlightAware ADS-B
Thu 05:28:20 PM -15.8670 -47.9250 224° Southwest 15 17  Level FlightAware ADS-B
Thu 05:29:14 PM -15.8680 -47.9250 180° South 19 22  Level FlightAware ADS-B
Thu 05:29:43 PM -15.8680 -47.9260 270° West 16 18  Level FlightAware ADS-B
Thu 05:30:11 PM -15.8690 -47.9260 180° South 11 13  Level FlightAware ADS-B
Thu 05:32:00 PM -15.8626 -47.9127 63° Northeast  Level Estimated

Login

Don't have an account? Register now (free) for customized features, flight alerts, and more!